Time;durP1;ratioP1;P1;durP2;ratioP2;P2;SDS_P1;SDS_P2;PMS_P1;PMS_P2;Temp;Humidity;BMP_temperature;BMP_pressure;BME280_temperature;BME280_humidity;BME280_pressure;Samples;Min_cycle;Max_cycle;Signal;HPM_P1;HPM_P2
2022/08/03 00:11:43;;;;;;;10.80;5.60;;;;;;;19.73;96.02;100641.66;680051;1277;140027;-85
2022/08/03 00:26:47;;;;;;;21.50;8.10;;;;;;;19.66;96.38;100654.77;680095;1277;140153;-86
2022/08/03 00:41:50;;;;;;;13.70;5.60;;;;;;;19.47;96.51;100660.67;680311;1277;139353;-85
2022/08/03 00:56:53;;;;;;;6.80;4.20;;;;;;;19.11;97.43;100660.65;680107;1275;139065;-85
2022/08/03 01:12:05;;;;;;;;;;;;;;;18.98;98.83;100655.84;680457;1276;140345;-85
2022/08/03 01:27:16;;;;;;;9.70;5.50;;;;;;;18.93;99.93;100646.21;680311;1277;128594;-85
2022/08/03 01:42:21;;;;;;;8.60;4.30;;;;;;;18.88;99.86;100637.44;680369;1276;139610;-85
2022/08/03 01:57:26;;;;;;;4.90;4.20;;;;;;;18.89;99.98;100635.61;679895;1277;140039;-85
2022/08/03 02:12:32;;;;;;;7.80;4.70;;;;;;;18.82;100.00;100628.22;679664;1275;139776;-85
2022/08/03 02:27:38;;;;;;;10.30;5.20;;;;;;;18.67;99.83;100623.40;680167;1277;141540;-85
2022/08/03 02:42:48;;;;;;;5.90;4.60;;;;;;;18.53;99.86;100623.47;680255;1277;140629;-84
2022/08/03 02:57:52;;;;;;;11.20;5.60;;;;;;;18.36;99.91;100615.17;679808;1277;139714;-85
2022/08/03 03:12:57;;;;;;;7.30;4.70;;;;;;;18.24;100.00;100614.94;679823;1276;367928;-85
2022/08/03 03:28:01;;;;;;;6.80;4.70;;;;;;;18.21;100.00;100616.84;680108;1277;139224;-85
2022/08/03 03:43:10;;;;;;;11.20;5.50;;;;;;;18.32;100.00;100616.51;679901;1277;140438;-85
2022/08/03 03:58:13;;;;;;;10.50;5.90;;;;;;;18.44;100.00;100625.73;679922;1277;140721;-85
2022/08/03 04:13:18;;;;;;;32.10;7.80;;;;;;;18.54;100.00;100641.63;680063;1277;139036;-84
2022/08/03 04:28:22;;;;;;;8.90;5.00;;;;;;;18.59;100.00;100661.30;680033;1276;139886;-85
2022/08/03 04:43:35;;;;;;;15.00;5.90;;;;;;;18.75;100.00;100678.70;680050;1277;139811;-85
2022/08/03 04:58:38;;;;;;;10.10;5.10;;;;;;;19.06;100.00;100692.41;679918;1275;141271;-85
2022/08/03 05:13:41;;;;;;;14.80;6.30;;;;;;;19.66;99.82;100690.98;679948;1276;140623;-84
2022/08/03 05:28:44;;;;;;;14.00;6.60;;;;;;;20.08;99.77;100694.13;679635;1276;140645;-86
2022/08/03 05:43:54;;;;;;;8.70;5.10;;;;;;;20.87;99.41;100699.48;679662;1276;139730;-85
2022/08/03 05:58:57;;;;;;;9.30;4.80;;;;;;;21.98;97.99;100701.64;679659;1276;138809;-85
2022/08/03 06:14:18;;;;;;;9.40;5.20;;;;;;;22.81;95.01;100706.30;679818;1276;139264;-84
2022/08/03 06:29:21;;;;;;;7.90;5.40;;;;;;;23.33;93.95;100712.81;679875;1274;138795;-85
2022/08/03 06:44:24;;;;;;;5.90;3.00;;;;;;;24.58;85.90;100717.52;679394;1276;139208;-83
2022/08/03 06:59:28;;;;;;;6.00;2.90;;;;;;;25.96;78.38;100717.44;679712;1275;138795;-84
2022/08/03 07:14:51;;;;;;;5.80;2.90;;;;;;;26.99;72.04;100714.27;679705;1277;140354;-83
2022/08/03 07:30:05;;;;;;;4.30;2.40;;;;;;;27.78;66.88;100720.71;679794;1277;138526;-84
2022/08/03 07:45:09;;;;;;;3.80;2.80;;;;;;;27.83;65.55;100727.94;679477;1277;141788;-84
2022/08/03 08:00:18;;;;;;;3.50;2.40;;;;;;;28.53;64.43;100727.61;679677;1275;139661;-85
2022/08/03 08:15:22;;;;;;;3.30;2.10;;;;;;;28.66;62.14;100733.27;679735;1276;138743;-84
2022/08/03 08:30:26;;;;;;;5.50;2.20;;;;;;;29.17;61.80;100735.19;679778;1277;138945;-84
2022/08/03 08:45:31;;;;;;;2.90;2.10;;;;;;;29.75;59.33;100736.92;678896;1277;139753;-85
2022/08/03 09:00:35;;;;;;;4.00;2.00;;;;;;;30.13;57.22;100732.53;679868;1276;138005;-84
2022/08/03 09:15:39;;;;;;;4.10;1.70;;;;;;;30.31;54.96;100730.34;679844;1276;138168;-83
2022/08/03 09:30:59;;;;;;;2.50;1.60;;;;;;;30.61;53.32;100725.41;679678;1277;139332;-82
2022/08/03 09:46:06;;;;;;;3.70;1.50;;;;;;;30.71;51.92;100726.46;679646;1277;138400;-82
2022/08/03 10:01:10;;;;;;;4.40;2.40;;;;;;;31.08;51.74;100728.66;679899;1277;139961;-83
2022/08/03 10:16:33;;;;;;;2.20;1.50;;;;;;;31.96;50.31;100720.09;679742;1277;138977;-84
2022/08/03 10:31:43;;;;;;;4.70;2.20;;;;;;;32.53;48.73;100710.13;679749;1277;139409;-83
2022/08/03 10:47:00;;;;;;;2.70;1.40;;;;;;;32.34;49.15;100704.38;679333;1274;140361;-83
2022/08/03 11:02:07;;;;;;;6.60;1.90;;;;;;;33.43;48.07;100698.89;680004;1275;138938;-83
2022/08/03 11:17:10;;;;;;;3.40;2.30;;;;;;;33.35;46.36;100699.73;679755;1276;140105;-83
2022/08/03 11:32:39;;;;;;;;;;;;;;;33.77;46.60;100691.76;679791;1277;137942;-84
2022/08/03 11:47:53;;;;;;;3.40;1.40;;;;;;;33.50;46.04;100691.98;679771;1277;124449;-85
2022/08/03 12:03:02;;;;;;;5.90;2.30;;;;;;;33.99;45.94;100675.80;679463;1276;139557;-83
2022/08/03 12:18:14;;;;;;;3.00;1.50;;;;;;;34.14;45.44;100671.17;679859;1277;138242;-84
2022/08/03 12:33:23;;;;;;;3.20;1.80;;;;;;;34.30;45.06;100666.74;679741;1277;141693;-84
2022/08/03 12:48:27;;;;;;;3.50;1.70;;;;;;;33.99;44.61;100653.81;679844;1277;139149;-84
2022/08/03 13:03:42;;;;;;;3.40;1.60;;;;;;;34.45;44.67;100644.41;679703;1277;141605;-83
2022/08/03 13:18:53;;;;;;;3.50;1.60;;;;;;;34.94;43.98;100637.86;678973;1277;138082;-83
2022/08/03 13:33:56;;;;;;;2.70;1.50;;;;;;;34.75;43.34;100633.32;679574;1277;138139;-84
2022/08/03 13:49:00;;;;;;;3.00;1.60;;;;;;;35.10;43.34;100623.91;679859;1277;138501;-84
2022/08/03 14:04:03;;;;;;;10.50;2.90;;;;;;;34.96;42.66;100617.60;679846;1277;140034;-83
2022/08/03 14:19:17;;;;;;;2.20;2.00;;;;;;;35.23;41.23;100608.98;679667;1277;138651;-84
2022/08/03 14:34:27;;;;;;;2.90;1.70;;;;;;;36.82;41.00;100588.45;679696;1277;138033;-84
2022/08/03 14:49:31;;;;;;;4.90;1.60;;;;;;;44.97;35.84;100581.67;679966;1275;138074;-84
2022/08/03 15:04:55;;;;;;;5.80;1.80;;;;;;;38.57;37.40;100563.57;679465;1277;306439;-84
2022/08/03 15:19:59;;;;;;;3.40;1.40;;;;;;;35.51;39.13;100555.80;679857;1277;139485;-84
2022/08/03 15:35:23;;;;;;;2.40;1.60;;;;;;;34.84;40.70;100546.54;679954;1277;138656;-83
2022/08/03 15:50:27;;;;;;;6.20;1.60;;;;;;;34.22;41.08;100541.27;679810;1277;139407;-83
2022/08/03 16:05:31;;;;;;;4.50;1.80;;;;;;;34.00;41.23;100536.44;679285;1277;138014;-84
2022/08/03 16:20:34;;;;;;;2.90;1.50;;;;;;;33.97;41.08;100523.73;679785;1277;138546;-84
2022/08/03 16:35:38;;;;;;;1.50;1.40;;;;;;;33.65;40.86;100522.14;679673;1277;22578;-82
2022/08/03 16:50:41;;;;;;;3.70;1.80;;;;;;;33.54;41.46;100519.23;679639;1277;22433;-84
2022/08/03 17:05:45;;;;;;;3.80;1.80;;;;;;;33.04;42.19;100525.45;680234;1277;23095;-84
2022/08/03 17:20:53;;;;;;;3.60;2.00;;;;;;;32.69;43.60;100529.58;680251;1277;23101;-84
2022/08/03 17:35:57;;;;;;;3.20;2.10;;;;;;;32.75;44.18;100539.88;680082;1276;22338;-84
2022/08/03 17:51:14;;;;;;;4.10;2.70;;;;;;;31.91;44.90;100545.21;680241;1277;22531;-85
2022/08/03 18:06:21;;;;;;;2.50;1.50;;;;;;;31.14;46.68;100552.30;680269;1275;23171;-84
2022/08/03 18:21:31;;;;;;;2.40;1.50;;;;;;;30.05;48.34;100561.70;680294;1277;22571;-84
2022/08/03 18:36:56;;;;;;;4.20;1.80;;;;;;;28.97;50.15;100569.34;680135;1277;23443;-84
2022/08/03 18:52:12;;;;;;;5.40;2.40;;;;;;;28.49;52.00;100585.04;679149;1276;139572;-84
2022/08/03 19:07:23;;;;;;;12.60;5.00;;;;;;;28.01;53.74;100587.14;680009;1277;137937;-84
2022/08/03 19:22:27;;;;;;;21.60;11.00;;;;;;;27.32;55.96;100586.83;679830;1277;139729;-83
2022/08/03 19:37:33;;;;;;;28.40;12.80;;;;;;;26.62;59.19;100595.89;679729;1276;138865;-83
2022/08/03 19:52:46;;;;;;;16.70;5.50;;;;;;;25.86;60.50;100595.66;679755;1277;139454;-84
2022/08/03 20:07:51;;;;;;;14.00;4.50;;;;;;;24.92;61.58;100598.34;679981;1277;138521;-83
2022/08/03 20:22:57;;;;;;;13.10;5.70;;;;;;;24.62;63.73;100609.90;679797;1277;138351;-82
2022/08/03 20:38:00;;;;;;;15.00;5.00;;;;;;;24.49;62.94;100611.95;679747;1277;138314;-83
2022/08/03 20:53:06;;;;;;;23.60;10.30;;;;;;;24.42;63.56;100615.48;679931;1275;138386;-83
2022/08/03 21:08:14;;;;;;;30.90;14.50;;;;;;;24.11;65.54;100628.88;680171;1276;138675;-84
2022/08/03 21:23:19;;;;;;;19.60;11.40;;;;;;;23.66;66.96;100632.27;679875;1277;138383;-84
2022/08/03 21:38:43;;;;;;;19.70;9.20;;;;;;;23.38;68.73;100631.15;679783;1277;140352;-83
2022/08/03 21:54:01;;;;;;;15.60;8.70;;;;;;;23.03;70.14;100630.38;680112;1275;139350;-84
2022/08/03 22:09:07;;;;;;;12.70;7.60;;;;;;;22.73;71.28;100631.17;680065;1277;139993;-84
2022/08/03 22:24:10;;;;;;;18.50;8.60;;;;;;;22.51;71.72;100632.69;680033;1277;140328;-83
2022/08/03 22:39:14;;;;;;;17.00;8.40;;;;;;;22.22;73.15;100631.52;679903;1277;138923;-84
2022/08/03 22:54:31;;;;;;;7.80;5.00;;;;;;;22.15;73.42;100628.89;680123;1275;138741;-83
2022/08/03 23:09:36;;;;;;;20.10;10.80;;;;;;;22.10;74.34;100627.80;679901;1277;140317;-84
2022/08/03 23:24:39;;;;;;;18.60;9.10;;;;;;;21.86;75.15;100638.35;680083;1277;138763;-84
2022/08/03 23:39:47;;;;;;;13.00;7.60;;;;;;;21.73;75.36;100644.30;679349;1277;138938;-84
2022/08/03 23:55:30;;;;;;;15.00;7.80;;;;;;;21.76;75.48;100647.90;680192;1277;139160;-83
